sensor_id;sensor_type;location;lat;lon;timestamp;pressure;altitude;pressure_sealevel;temperature;humidity
9307;BME280;4691;47.612;7.610;2023-05-24T00:00:19;99003.81;;;15.87;100.00
9307;BME280;4691;47.612;7.610;2023-05-24T00:02:46;99008.34;;;15.87;100.00
9307;BME280;4691;47.612;7.610;2023-05-24T00:05:12;99010.66;;;15.82;100.00
9307;BME280;4691;47.612;7.610;2023-05-24T00:07:39;99006.16;;;15.73;100.00
9307;BME280;4691;47.612;7.610;2023-05-24T00:10:05;99003.78;;;15.70;100.00
9307;BME280;4691;47.612;7.610;2023-05-24T00:12:30;99002.63;;;15.62;100.00
9307;BME280;4691;47.612;7.610;2023-05-24T00:14:56;99008.41;;;15.67;100.00
9307;BME280;4691;47.612;7.610;2023-05-24T00:17:21;99008.72;;;15.64;100.00
9307;BME280;4691;47.612;7.610;2023-05-24T00:19:46;99013.13;;;15.56;100.00
9307;BME280;4691;47.612;7.610;2023-05-24T00:22:12;99012.16;;;15.57;100.00
9307;BME280;4691;47.612;7.610;2023-05-24T00:24:38;99008.75;;;15.55;100.00
9307;BME280;4691;47.612;7.610;2023-05-24T00:27:04;99014.69;;;15.58;100.00
9307;BME280;4691;47.612;7.610;2023-05-24T00:29:30;99008.16;;;15.51;100.00
9307;BME280;4691;47.612;7.610;2023-05-24T00:31:55;99015.84;;;15.46;100.00
9307;BME280;4691;47.612;7.610;2023-05-24T00:34:20;99015.00;;;15.36;100.00
9307;BME280;4691;47.612;7.610;2023-05-24T00:36:45;99014.75;;;15.39;100.00
9307;BME280;4691;47.612;7.610;2023-05-24T00:39:11;99011.34;;;15.37;100.00
9307;BME280;4691;47.612;7.610;2023-05-24T00:41:36;99009.78;;;15.44;100.00
9307;BME280;4691;47.612;7.610;2023-05-24T00:44:01;99009.22;;;15.31;100.00
9307;BME280;4691;47.612;7.610;2023-05-24T00:46:29;99007.22;;;15.33;100.00
9307;BME280;4691;47.612;7.610;2023-05-24T00:48:55;99005.69;;;15.30;100.00
9307;BME280;4691;47.612;7.610;2023-05-24T00:51:21;99005.69;;;15.30;100.00
9307;BME280;4691;47.612;7.610;2023-05-24T00:53:47;99006.69;;;15.19;100.00
9307;BME280;4691;47.612;7.610;2023-05-24T00:56:14;99000.59;;;15.17;100.00
9307;BME280;4691;47.612;7.610;2023-05-24T00:58:40;98992.69;;;15.16;100.00
9307;BME280;4691;47.612;7.610;2023-05-24T01:04:27;99007.41;;;15.02;100.00
9307;BME280;4691;47.612;7.610;2023-05-24T01:07:00;98997.22;;;15.06;100.00
9307;BME280;4691;47.612;7.610;2023-05-24T01:09:36;98993.25;;;15.00;100.00
9307;BME280;4691;47.612;7.610;2023-05-24T01:12:35;98996.53;;;14.94;100.00
9307;BME280;4691;47.612;7.610;2023-05-24T01:20:14;98989.56;;;14.81;100.00
9307;BME280;4691;47.612;7.610;2023-05-24T01:23:25;98994.25;;;14.79;100.00
9307;BME280;4691;47.612;7.610;2023-05-24T01:26:02;98995.97;;;14.80;100.00
9307;BME280;4691;47.612;7.610;2023-05-24T01:28:34;98994.97;;;14.81;100.00
9307;BME280;4691;47.612;7.610;2023-05-24T01:31:01;98999.91;;;14.76;100.00
9307;BME280;4691;47.612;7.610;2023-05-24T01:33:26;98991.84;;;14.76;100.00
9307;BME280;4691;47.612;7.610;2023-05-24T01:35:52;98992.25;;;14.72;100.00
9307;BME280;4691;47.612;7.610;2023-05-24T01:38:17;99000.63;;;14.78;100.00
9307;BME280;4691;47.612;7.610;2023-05-24T01:40:43;98996.94;;;14.79;100.00
9307;BME280;4691;47.612;7.610;2023-05-24T01:43:28;98990.88;;;14.77;100.00
9307;BME280;4691;47.612;7.610;2023-05-24T01:46:12;99002.06;;;14.73;100.00
9307;BME280;4691;47.612;7.610;2023-05-24T01:49:08;98990.03;;;14.67;100.00
9307;BME280;4691;47.612;7.610;2023-05-24T01:51:52;98993.84;;;14.55;100.00
9307;BME280;4691;47.612;7.610;2023-05-24T01:54:21;98991.28;;;14.53;100.00
9307;BME280;4691;47.612;7.610;2023-05-24T01:56:47;98991.41;;;14.52;100.00
9307;BME280;4691;47.612;7.610;2023-05-24T01:59:13;98987.00;;;14.51;100.00
9307;BME280;4691;47.612;7.610;2023-05-24T02:01:41;98988.47;;;14.55;100.00
9307;BME280;4691;47.612;7.610;2023-05-24T02:04:07;98989.84;;;14.59;100.00
9307;BME280;4691;47.612;7.610;2023-05-24T02:06:32;98987.00;;;14.51;100.00
9307;BME280;4691;47.612;7.610;2023-05-24T02:08:57;98986.28;;;14.49;100.00
9307;BME280;4691;47.612;7.610;2023-05-24T02:11:23;98987.56;;;14.45;100.00
9307;BME280;4691;47.612;7.610;2023-05-24T02:13:48;98987.56;;;14.45;100.00
9307;BME280;4691;47.612;7.610;2023-05-24T02:19:32;98990.81;;;14.38;100.00
9307;BME280;4691;47.612;7.610;2023-05-24T02:22:00;99000.59;;;14.40;100.00
9307;BME280;4691;47.612;7.610;2023-05-24T02:24:26;98997.91;;;14.40;100.00
9307;BME280;4691;47.612;7.610;2023-05-24T02:26:51;98998.19;;;14.36;100.00
9307;BME280;4691;47.612;7.610;2023-05-24T02:29:16;98997.91;;;14.40;100.00
9307;BME280;4691;47.612;7.610;2023-05-24T02:31:41;98991.09;;;14.35;100.00
9307;BME280;4691;47.612;7.610;2023-05-24T02:34:09;98989.25;;;14.36;100.00
9307;BME280;4691;47.612;7.610;2023-05-24T02:36:34;98987.69;;;14.24;100.00
9307;BME280;4691;47.612;7.610;2023-05-24T02:39:00;98991.78;;;14.28;100.00
9307;BME280;4691;47.612;7.610;2023-05-24T02:41:26;98991.78;;;14.28;100.00
9307;BME280;4691;47.612;7.610;2023-05-24T02:43:51;98981.91;;;14.28;100.00
9307;BME280;4691;47.612;7.610;2023-05-24T02:46:16;98986.69;;;14.34;100.00
9307;BME280;4691;47.612;7.610;2023-05-24T02:48:42;98988.69;;;14.32;100.00
9307;BME280;4691;47.612;7.610;2023-05-24T02:51:07;98979.88;;;14.30;100.00
9307;BME280;4691;47.612;7.610;2023-05-24T02:53:32;98981.91;;;14.28;100.00
9307;BME280;4691;47.612;7.610;2023-05-24T02:55:58;98988.25;;;14.27;100.00
9307;BME280;4691;47.612;7.610;2023-05-24T02:58:24;98978.50;;;14.26;100.00
9307;BME280;4691;47.612;7.610;2023-05-24T03:00:53;98983.28;;;14.23;100.00
9307;BME280;4691;47.612;7.610;2023-05-24T03:03:18;98973.50;;;14.22;100.00
9307;BME280;4691;47.612;7.610;2023-05-24T03:05:43;98981.88;;;14.19;100.00
9307;BME280;4691;47.612;7.610;2023-05-24T03:08:09;98979.88;;;14.11;100.00
9307;BME280;4691;47.612;7.610;2023-05-24T03:10:34;98985.78;;;14.05;100.00
9307;BME280;4691;47.612;7.610;2023-05-24T03:12:59;98979.00;;;14.01;100.00
9307;BME280;4691;47.612;7.610;2023-05-24T03:15:25;98985.09;;;14.03;100.00
9307;BME280;4691;47.612;7.610;2023-05-24T03:17:50;98976.72;;;13.96;100.00
9307;BME280;4691;47.612;7.610;2023-05-24T03:20:16;98980.97;;;13.99;100.00
9307;BME280;4691;47.612;7.610;2023-05-24T03:22:41;98976.72;;;13.96;100.00
9307;BME280;4691;47.612;7.610;2023-05-24T03:25:07;98979.97;;;14.00;100.00
9307;BME280;4691;47.612;7.610;2023-05-24T03:27:34;98981.53;;;13.92;100.00
9307;BME280;4691;47.612;7.610;2023-05-24T03:30:00;98977.84;;;13.93;100.00
9307;BME280;4691;47.612;7.610;2023-05-24T03:32:25;98978.84;;;14.02;100.00
9307;BME280;4691;47.612;7.610;2023-05-24T03:34:50;98976.91;;;14.14;100.00
9307;BME280;4691;47.612;7.610;2023-05-24T03:37:15;98980.97;;;13.99;100.00
9307;BME280;4691;47.612;7.610;2023-05-24T03:39:41;98983.78;;;13.97;100.00
9307;BME280;4691;47.612;7.610;2023-05-24T03:42:06;98981.66;;;13.91;100.00
9307;BME280;4691;47.612;7.610;2023-05-24T03:44:32;98988.16;;;13.88;100.00
9307;BME280;4691;47.612;7.610;2023-05-24T03:46:57;98987.47;;;13.96;100.00
9307;BME280;4691;47.612;7.610;2023-05-24T03:49:22;98993.69;;;13.97;100.00
9307;BME280;4691;47.612;7.610;2023-05-24T03:51:47;98993.84;;;13.95;100.00
9307;BME280;4691;47.612;7.610;2023-05-24T03:54:13;98993.25;;;13.91;100.00
9307;BME280;4691;47.612;7.610;2023-05-24T03:56:38;98999.31;;;13.84;100.00
9307;BME280;4691;47.612;7.610;2023-05-24T03:59:03;98994.34;;;13.79;100.00
9307;BME280;4691;47.612;7.610;2023-05-24T04:01:29;99003.00;;;13.83;100.00
9307;BME280;4691;47.612;7.610;2023-05-24T04:03:58;99000.88;;;13.86;100.00
9307;BME280;4691;47.612;7.610;2023-05-24T04:06:23;99001.31;;;13.91;100.00
9307;BME280;4691;47.612;7.610;2023-05-24T04:08:56;98995.66;;;13.94;100.00
9307;BME280;4691;47.612;7.610;2023-05-24T04:11:23;98993.41;;;13.90;100.00
9307;BME280;4691;47.612;7.610;2023-05-24T04:13:52;99000.47;;;13.91;100.00
9307;BME280;4691;47.612;7.610;2023-05-24T04:16:18;98999.91;;;13.87;100.00
9307;BME280;4691;47.612;7.610;2023-05-24T04:18:43;99000.59;;;13.89;100.00
9307;BME280;4691;47.612;7.610;2023-05-24T04:21:10;98998.19;;;13.86;100.00
9307;BME280;4691;47.612;7.610;2023-05-24T04:23:35;99004.28;;;13.88;100.00
9307;BME280;4691;47.612;7.610;2023-05-24T04:26:00;99001.03;;;13.85;100.00
9307;BME280;4691;47.612;7.610;2023-05-24T04:28:25;99009.03;;;13.75;100.00
9307;BME280;4691;47.612;7.610;2023-05-24T04:30:51;99008.66;;;13.80;100.00
9307;BME280;4691;47.612;7.610;2023-05-24T04:33:16;99010.22;;;13.82;100.00
9307;BME280;4691;47.612;7.610;2023-05-24T04:35:41;99008.31;;;13.73;100.00
9307;BME280;4691;47.612;7.610;2023-05-24T04:38:08;99015.13;;;13.77;100.00
9307;BME280;4691;47.612;7.610;2023-05-24T04:40:36;99006.34;;;13.75;100.00
9307;BME280;4691;47.612;7.610;2023-05-24T04:43:02;99012.13;;;13.70;100.00
9307;BME280;4691;47.612;7.610;2023-05-24T04:45:28;99013.88;;;13.81;100.00
9307;BME280;4691;47.612;7.610;2023-05-24T04:47:54;99010.88;;;13.75;100.00
9307;BME280;4691;47.612;7.610;2023-05-24T04:50:20;99011.44;;;13.78;100.00
9307;BME280;4691;47.612;7.610;2023-05-24T04:52:45;99015.13;;;13.77;100.00
9307;BME280;4691;47.612;7.610;2023-05-24T04:55:10;99012.56;;;13.76;100.00
9307;BME280;4691;47.612;7.610;2023-05-24T04:57:36;99018.00;;;13.85;100.00
9307;BME280;4691;47.612;7.610;2023-05-24T05:00:01;99019.78;;;13.75;100.00
9307;BME280;4691;47.612;7.610;2023-05-24T05:02:26;99017.38;;;13.72;100.00
9307;BME280;4691;47.612;7.610;2023-05-24T05:04:52;99015.53;;;13.72;100.00
9307;BME280;4691;47.612;7.610;2023-05-24T05:07:17;99025.13;;;13.65;100.00
9307;BME280;4691;47.612;7.610;2023-05-24T05:09:42;99027.41;;;13.70;100.00
9307;BME280;4691;47.612;7.610;2023-05-24T05:12:08;99021.31;;;13.68;100.00
9307;BME280;4691;47.612;7.610;2023-05-24T05:14:33;99018.53;;;13.79;100.00
9307;BME280;4691;47.612;7.610;2023-05-24T05:16:58;99022.47;;;13.75;100.00
9307;BME280;4691;47.612;7.610;2023-05-24T05:19:24;99021.63;;;13.75;100.00
9307;BME280;4691;47.612;7.610;2023-05-24T05:21:49;99020.19;;;13.70;100.00
9307;BME280;4691;47.612;7.610;2023-05-24T05:24:14;99029.38;;;13.68;100.00
9307;BME280;4691;47.612;7.610;2023-05-24T05:26:40;99018.06;;;13.74;100.00
9307;BME280;4691;47.612;7.610;2023-05-24T05:29:06;99020.63;;;13.76;100.00
9307;BME280;4691;47.612;7.610;2023-05-24T05:31:32;99022.75;;;13.72;100.00
9307;BME280;4691;47.612;7.610;2023-05-24T05:33:57;99021.09;;;13.81;100.00
9307;BME280;4691;47.612;7.610;2023-05-24T05:36:22;99030.28;;;13.78;100.00
9307;BME280;4691;47.612;7.610;2023-05-24T05:38:47;99029.28;;;13.79;100.00
9307;BME280;4691;47.612;7.610;2023-05-24T05:41:13;99031.44;;;13.85;100.00
9307;BME280;4691;47.612;7.610;2023-05-24T05:43:38;99027.75;;;13.86;100.00
9307;BME280;4691;47.612;7.610;2023-05-24T05:46:03;99036.09;;;13.83;100.00
9307;BME280;4691;47.612;7.610;2023-05-24T05:48:29;99034.69;;;13.89;100.00
9307;BME280;4691;47.612;7.610;2023-05-24T05:50:54;99043.06;;;13.96;100.00
9307;BME280;4691;47.612;7.610;2023-05-24T05:53:19;99043.53;;;14.01;100.00
9307;BME280;4691;47.612;7.610;2023-05-24T05:55:45;99036.09;;;13.83;100.00
9307;BME280;4691;47.612;7.610;2023-05-24T05:58:10;99044.03;;;13.94;100.00
9307;BME280;4691;47.612;7.610;2023-05-24T06:00:37;99046.28;;;13.89;100.00
9307;BME280;4691;47.612;7.610;2023-05-24T06:03:02;99041.75;;;13.80;100.00
9307;BME280;4691;47.612;7.610;2023-05-24T06:05:27;99048.63;;;13.73;100.00
9307;BME280;4691;47.612;7.610;2023-05-24T06:07:52;99058.66;;;13.71;100.00
9307;BME280;4691;47.612;7.610;2023-05-24T06:10:18;99051.31;;;13.73;100.00
9307;BME280;4691;47.612;7.610;2023-05-24T06:12:43;99051.66;;;13.89;100.00
9307;BME280;4691;47.612;7.610;2023-05-24T06:15:09;99049.97;;;13.88;100.00
9307;BME280;4691;47.612;7.610;2023-05-24T06:17:35;99048.81;;;13.81;100.00
9307;BME280;4691;47.612;7.610;2023-05-24T06:20:04;99058.44;;;13.84;100.00
9307;BME280;4691;47.612;7.610;2023-05-24T06:22:39;99053.78;;;13.86;100.00
9307;BME280;4691;47.612;7.610;2023-05-24T06:25:06;99060.19;;;13.94;100.00
9307;BME280;4691;47.612;7.610;2023-05-24T06:27:32;99061.28;;;13.92;100.00
9307;BME280;4691;47.612;7.610;2023-05-24T06:29:57;99065.94;;;13.80;100.00
9307;BME280;4691;47.612;7.610;2023-05-24T06:32:22;99066.66;;;13.82;100.00
9307;BME280;4691;47.612;7.610;2023-05-24T06:34:48;99063.69;;;13.85;100.00
9307;BME280;4691;47.612;7.610;2023-05-24T06:37:13;99066.06;;;13.79;100.00
9307;BME280;4691;47.612;7.610;2023-05-24T06:39:39;99072.44;;;13.78;100.00
9307;BME280;4691;47.612;7.610;2023-05-24T06:42:05;99076.63;;;13.70;100.00
9307;BME280;4691;47.612;7.610;2023-05-24T06:44:30;99083.91;;;13.59;100.00
9307;BME280;4691;47.612;7.610;2023-05-24T06:46:59;99087.56;;;13.58;100.00
9307;BME280;4691;47.612;7.610;2023-05-24T06:49:24;99097.41;;;13.47;100.00
9307;BME280;4691;47.612;7.610;2023-05-24T06:51:49;99101.78;;;13.48;100.00
9307;BME280;4691;47.612;7.610;2023-05-24T06:54:15;99102.91;;;13.46;100.00
9307;BME280;4691;47.612;7.610;2023-05-24T06:56:40;99111.19;;;13.54;100.00
9307;BME280;4691;47.612;7.610;2023-05-24T06:59:06;99104.44;;;13.60;100.00
9307;BME280;4691;47.612;7.610;2023-05-24T07:01:32;99113.22;;;13.62;100.00
9307;BME280;4691;47.612;7.610;2023-05-24T07:03:58;99117.63;;;13.93;100.00
9307;BME280;4691;47.612;7.610;2023-05-24T07:06:23;99113.16;;;14.04;100.00
9307;BME280;4691;47.612;7.610;2023-05-24T07:08:49;99101.59;;;14.13;100.00
9307;BME280;4691;47.612;7.610;2023-05-24T07:11:14;99109.91;;;14.10;100.00
9307;BME280;4691;47.612;7.610;2023-05-24T07:13:39;99111.91;;;14.08;100.00
9307;BME280;4691;47.612;7.610;2023-05-24T07:16:05;99111.97;;;13.97;100.00
9307;BME280;4691;47.612;7.610;2023-05-24T07:18:31;99108.13;;;13.89;100.00
9307;BME280;4691;47.612;7.610;2023-05-24T07:20:56;99114.53;;;13.98;100.00
9307;BME280;4691;47.612;7.610;2023-05-24T07:23:21;99113.44;;;14.01;100.00
9307;BME280;4691;47.612;7.610;2023-05-24T07:25:46;99112.59;;;14.10;100.00
9307;BME280;4691;47.612;7.610;2023-05-24T07:28:12;99105.66;;;14.07;100.00
9307;BME280;4691;47.612;7.610;2023-05-24T07:30:39;99107.22;;;14.10;100.00
9307;BME280;4691;47.612;7.610;2023-05-24T07:33:04;99111.25;;;14.25;100.00
9307;BME280;4691;47.612;7.610;2023-05-24T07:35:30;99114.84;;;14.05;100.00
9307;BME280;4691;47.612;7.610;2023-05-24T07:37:55;99126.41;;;13.96;100.00
9307;BME280;4691;47.612;7.610;2023-05-24T07:40:20;99120.50;;;14.02;100.00
9307;BME280;4691;47.612;7.610;2023-05-24T07:42:47;99119.06;;;13.98;100.00
9307;BME280;4691;47.612;7.610;2023-05-24T07:45:12;99110.63;;;14.12;100.00
9307;BME280;4691;47.612;7.610;2023-05-24T07:47:38;99117.78;;;14.32;100.00
9307;BME280;4691;47.612;7.610;2023-05-24T07:50:04;99108.53;;;14.56;100.00
9307;BME280;4691;47.612;7.610;2023-05-24T07:52:29;99106.84;;;14.55;100.00
9307;BME280;4691;47.612;7.610;2023-05-24T07:54:55;99099.19;;;14.20;100.00
9307;BME280;4691;47.612;7.610;2023-05-24T07:57:20;99106.78;;;14.45;100.00
9307;BME280;4691;47.612;7.610;2023-05-24T07:59:46;99107.63;;;14.46;100.00
9307;BME280;4691;47.612;7.610;2023-05-24T08:02:12;99106.00;;;14.54;100.00
9307;BME280;4691;47.612;7.610;2023-05-24T08:04:38;99098.53;;;14.68;100.00
9307;BME280;4691;47.612;7.610;2023-05-24T08:07:04;99105.06;;;14.75;100.00
9307;BME280;4691;47.612;7.610;2023-05-24T08:09:30;99101.75;;;14.62;100.00
9307;BME280;4691;47.612;7.610;2023-05-24T08:12:00;99103.59;;;14.61;100.00
9307;BME280;4691;47.612;7.610;2023-05-24T08:14:25;99102.88;;;14.59;100.00
9307;BME280;4691;47.612;7.610;2023-05-24T08:16:50;99105.94;;;14.45;100.00
9307;BME280;4691;47.612;7.610;2023-05-24T08:19:16;99100.56;;;14.45;100.00
9307;BME280;4691;47.612;7.610;2023-05-24T08:21:41;99109.47;;;14.45;100.00
9307;BME280;4691;47.612;7.610;2023-05-24T08:24:07;99111.22;;;14.56;100.00
9307;BME280;4691;47.612;7.610;2023-05-24T08:26:32;99103.44;;;14.53;100.00
9307;BME280;4691;47.612;7.610;2023-05-24T08:28:58;99112.56;;;14.41;100.00
9307;BME280;4691;47.612;7.610;2023-05-24T08:31:23;99107.34;;;14.49;100.00
9307;BME280;4691;47.612;7.610;2023-05-24T08:33:48;99113.34;;;14.52;100.00
9307;BME280;4691;47.612;7.610;2023-05-24T08:36:18;99109.91;;;14.50;100.00
9307;BME280;4691;47.612;7.610;2023-05-24T08:38:43;99105.91;;;14.35;100.00
9307;BME280;4691;47.612;7.610;2023-05-24T08:41:09;99105.94;;;14.45;100.00
9307;BME280;4691;47.612;7.610;2023-05-24T08:43:35;99117.09;;;14.40;100.00
9307;BME280;4691;47.612;7.610;2023-05-24T08:46:02;99125.50;;;14.47;100.00
9307;BME280;4691;47.612;7.610;2023-05-24T08:48:28;99123.06;;;14.44;100.00
9307;BME280;4691;47.612;7.610;2023-05-24T08:50:53;99136.91;;;14.29;100.00
9307;BME280;4691;47.612;7.610;2023-05-24T08:53:20;99140.09;;;14.13;100.00
9307;BME280;4691;47.612;7.610;2023-05-24T08:55:47;99142.78;;;14.13;100.00
9307;BME280;4691;47.612;7.610;2023-05-24T08:58:14;99141.66;;;14.16;100.00
9307;BME280;4691;47.612;7.610;2023-05-24T09:00:40;99150.03;;;14.23;100.00
9307;BME280;4691;47.612;7.610;2023-05-24T09:03:06;99150.00;;;14.13;100.00
9307;BME280;4691;47.612;7.610;2023-05-24T09:05:32;99151.41;;;14.17;100.00
9307;BME280;4691;47.612;7.610;2023-05-24T09:07:58;99147.75;;;14.18;100.00
9307;BME280;4691;47.612;7.610;2023-05-24T09:10:24;99150.44;;;14.18;100.00
9307;BME280;4691;47.612;7.610;2023-05-24T09:12:54;99147.25;;;14.34;100.00
9307;BME280;4691;47.612;7.610;2023-05-24T09:15:21;99146.03;;;14.48;100.00
9307;BME280;4691;47.612;7.610;2023-05-24T09:17:47;99136.31;;;14.56;100.00
9307;BME280;4691;47.612;7.610;2023-05-24T09:20:12;99140.91;;;14.75;100.00
9307;BME280;4691;47.612;7.610;2023-05-24T09:22:40;99125.84;;;14.63;100.00
9307;BME280;4691;47.612;7.610;2023-05-24T09:25:07;99127.81;;;14.61;100.00
9307;BME280;4691;47.612;7.610;2023-05-24T09:27:34;99128.69;;;14.71;100.00
9307;BME280;4691;47.612;7.610;2023-05-24T09:29:59;99124.47;;;14.78;100.00
9307;BME280;4691;47.612;7.610;2023-05-24T09:32:26;99119.81;;;15.00;100.00
9307;BME280;4691;47.612;7.610;2023-05-24T09:34:53;99126.03;;;15.10;100.00
9307;BME280;4691;47.612;7.610;2023-05-24T09:37:22;99111.59;;;15.11;100.00
9307;BME280;4691;47.612;7.610;2023-05-24T09:39:51;99133.84;;;14.94;100.00
9307;BME280;4691;47.612;7.610;2023-05-24T09:42:17;99132.28;;;15.01;100.00
9307;BME280;4691;47.612;7.610;2023-05-24T09:44:46;99130.13;;;14.75;100.00
9307;BME280;4691;47.612;7.610;2023-05-24T09:47:12;99140.84;;;14.56;100.00
9307;BME280;4691;47.612;7.610;2023-05-24T09:49:43;99144.84;;;14.71;100.00
9307;BME280;4691;47.612;7.610;2023-05-24T09:52:13;99140.31;;;14.72;100.00
9307;BME280;4691;47.612;7.610;2023-05-24T09:54:38;99137.06;;;14.68;100.00
9307;BME280;4691;47.612;7.610;2023-05-24T09:57:05;99136.06;;;14.69;100.00
9307;BME280;4691;47.612;7.610;2023-05-24T09:59:32;99137.19;;;14.57;100.00
9307;BME280;4691;47.612;7.610;2023-05-24T10:02:07;99139.31;;;14.63;100.00
9307;BME280;4691;47.612;7.610;2023-05-24T10:04:35;99149.09;;;14.74;100.00
9307;BME280;4691;47.612;7.610;2023-05-24T10:07:01;99143.13;;;14.61;100.00
9307;BME280;4691;47.612;7.610;2023-05-24T10:09:28;99148.16;;;14.44;100.00
9307;BME280;4691;47.612;7.610;2023-05-24T10:12:00;99149.19;;;14.53;100.00
9307;BME280;4691;47.612;7.610;2023-05-24T10:14:35;99147.94;;;14.57;100.00
9307;BME280;4691;47.612;7.610;2023-05-24T10:19:36;99158.75;;;14.46;100.00
9307;BME280;4691;47.612;7.610;2023-05-24T10:22:06;99153.53;;;14.44;100.00
9307;BME280;4691;47.612;7.610;2023-05-24T10:24:37;99154.38;;;14.45;100.00
9307;BME280;4691;47.612;7.610;2023-05-24T10:27:08;99156.91;;;14.36;100.00
9307;BME280;4691;47.612;7.610;2023-05-24T10:32:42;99154.38;;;14.45;100.00
9307;BME280;4691;47.612;7.610;2023-05-24T10:35:09;99150.91;;;14.33;100.00
9307;BME280;4691;47.612;7.610;2023-05-24T10:37:39;99162.81;;;14.30;100.00
9307;BME280;4691;47.612;7.610;2023-05-24T10:40:05;99155.44;;;14.32;100.00
9307;BME280;4691;47.612;7.610;2023-05-24T10:42:34;99158.13;;;14.32;100.00
9307;BME280;4691;47.612;7.610;2023-05-24T10:45:28;99154.84;;;14.19;100.00
9307;BME280;4691;47.612;7.610;2023-05-24T10:47:55;99151.59;;;14.25;100.00
9307;BME280;4691;47.612;7.610;2023-05-24T10:50:21;99152.66;;;14.44;100.00
9307;BME280;4691;47.612;7.610;2023-05-24T10:52:50;99147.66;;;14.60;100.00
9307;BME280;4691;47.612;7.610;2023-05-24T10:55:17;99142.72;;;14.65;100.00
9307;BME280;4691;47.612;7.610;2023-05-24T10:57:43;99143.69;;;14.64;100.00
9307;BME280;4691;47.612;7.610;2023-05-24T11:03:02;99143.00;;;14.62;100.00
9307;BME280;4691;47.612;7.610;2023-05-24T11:08:12;99143.50;;;15.06;100.00
9307;BME280;4691;47.612;7.610;2023-05-24T11:10:37;99129.88;;;15.17;100.00
9307;BME280;4691;47.612;7.610;2023-05-24T11:13:06;99132.03;;;15.23;100.00
9307;BME280;4691;47.612;7.610;2023-05-24T11:15:32;99133.97;;;15.02;100.00
9307;BME280;4691;47.612;7.610;2023-05-24T11:20:42;99150.28;;;14.91;100.00
9307;BME280;4691;47.612;7.610;2023-05-24T11:23:08;99150.81;;;14.85;100.00
9307;BME280;4691;47.612;7.610;2023-05-24T11:25:34;99141.78;;;15.05;100.00
9307;BME280;4691;47.612;7.610;2023-05-24T11:28:05;99142.34;;;14.99;100.00
9307;BME280;4691;47.612;7.610;2023-05-24T11:30:31;99145.47;;;15.04;100.00
9307;BME280;4691;47.612;7.610;2023-05-24T11:32:57;99127.91;;;15.10;100.00
9307;BME280;4691;47.612;7.610;2023-05-24T11:35:23;99130.88;;;15.36;100.00
9307;BME280;4691;47.612;7.610;2023-05-24T11:37:52;99120.94;;;15.46;100.00
9307;BME280;4691;47.612;7.610;2023-05-24T11:40:17;99123.94;;;15.72;100.00
9307;BME280;4691;47.612;7.610;2023-05-24T11:42:44;99114.84;;;15.73;100.00
9307;BME280;4691;47.612;7.610;2023-05-24T11:45:11;99108.69;;;15.91;100.00
9307;BME280;4691;47.612;7.610;2023-05-24T11:47:38;99113.41;;;15.69;100.00
9307;BME280;4691;47.612;7.610;2023-05-24T11:50:04;99106.59;;;15.75;100.00
9307;BME280;4691;47.612;7.610;2023-05-24T11:52:31;99113.16;;;16.09;100.00
9307;BME280;4691;47.612;7.610;2023-05-24T11:54:56;99105.38;;;16.06;100.00
9307;BME280;4691;47.612;7.610;2023-05-24T11:57:36;99106.75;;;16.10;100.00
9307;BME280;4691;47.612;7.610;2023-05-24T12:00:07;99097.22;;;15.88;100.00
9307;BME280;4691;47.612;7.610;2023-05-24T12:02:35;99100.81;;;16.07;100.00
9307;BME280;4691;47.612;7.610;2023-05-24T12:05:08;99106.09;;;16.36;100.00
9307;BME280;4691;47.612;7.610;2023-05-24T12:07:35;99095.09;;;16.20;100.00
9307;BME280;4691;47.612;7.610;2023-05-24T12:10:02;99091.69;;;16.18;100.00
9307;BME280;4691;47.612;7.610;2023-05-24T12:12:28;99082.03;;;16.15;100.00
9307;BME280;4691;47.612;7.610;2023-05-24T12:14:54;99090.81;;;16.27;100.00
9307;BME280;4691;47.612;7.610;2023-05-24T12:17:20;99093.53;;;16.17;100.00
9307;BME280;4691;47.612;7.610;2023-05-24T12:19:47;99087.34;;;16.62;100.00
9307;BME280;4691;47.612;7.610;2023-05-24T12:22:13;99084.19;;;16.67;100.00
9307;BME280;4691;47.612;7.610;2023-05-24T12:24:39;99095.19;;;16.55;100.00
9307;BME280;4691;47.612;7.610;2023-05-24T12:27:05;99076.22;;;16.47;100.00
9307;BME280;4691;47.612;7.610;2023-05-24T12:29:38;99077.84;;;17.04;100.00
9307;BME280;4691;47.612;7.610;2023-05-24T12:32:05;99066.38;;;17.46;100.00
9307;BME280;4691;47.612;7.610;2023-05-24T12:34:35;99060.22;;;17.61;100.00
9307;BME280;4691;47.612;7.610;2023-05-24T12:37:01;99065.34;;;17.47;100.00
9307;BME280;4691;47.612;7.610;2023-05-24T12:39:28;99057.69;;;18.12;100.00
9307;BME280;4691;47.612;7.610;2023-05-24T12:41:59;99043.44;;;18.02;100.00
9307;BME280;4691;47.612;7.610;2023-05-24T12:44:31;99042.63;;;18.10;100.00
9307;BME280;4691;47.612;7.610;2023-05-24T12:46:57;99037.72;;;18.72;100.00
9307;BME280;4691;47.612;7.610;2023-05-24T12:49:23;99032.03;;;18.91;100.00
9307;BME280;4691;47.612;7.610;2023-05-24T12:51:49;99027.16;;;19.11;100.00
9307;BME280;4691;47.612;7.610;2023-05-24T12:54:17;99012.56;;;19.29;100.00
9307;BME280;4691;47.612;7.610;2023-05-24T12:56:43;99010.84;;;19.61;100.00
9307;BME280;4691;47.612;7.610;2023-05-24T12:59:08;98993.13;;;19.89;100.00
9307;BME280;4691;47.612;7.610;2023-05-24T13:01:34;99011.16;;;19.74;100.00
9307;BME280;4691;47.612;7.610;2023-05-24T13:03:59;99000.69;;;19.46;100.00
9307;BME280;4691;47.612;7.610;2023-05-24T13:06:25;99008.44;;;19.74;100.00
9307;BME280;4691;47.612;7.610;2023-05-24T13:08:50;99000.84;;;19.53;100.00
9307;BME280;4691;47.612;7.610;2023-05-24T13:11:16;99000.63;;;19.79;100.00
9307;BME280;4691;47.612;7.610;2023-05-24T13:13:41;98996.53;;;19.83;100.00
9307;BME280;4691;47.612;7.610;2023-05-24T13:16:08;99004.34;;;19.86;100.00
9307;BME280;4691;47.612;7.610;2023-05-24T13:18:34;98999.91;;;20.33;100.00
9307;BME280;4691;47.612;7.610;2023-05-24T13:21:00;98985.00;;;20.83;100.00
9307;BME280;4691;47.612;7.610;2023-05-24T13:23:26;98967.63;;;20.92;100.00
9307;BME280;4691;47.612;7.610;2023-05-24T13:25:51;98967.41;;;21.84;100.00
9307;BME280;4691;47.612;7.610;2023-05-24T13:28:18;98929.53;;;22.77;100.00
9307;BME280;4691;47.612;7.610;2023-05-24T13:30:43;98935.84;;;22.20;100.00
9307;BME280;4691;47.612;7.610;2023-05-24T13:33:08;98943.91;;;21.01;100.00